sensor_id;sensor_type;location;lat;lon;timestamp;P1;durP1;ratioP1;P2;durP2;ratioP2
5456;SDS011;2751;49.802;9.944;2023-05-23T00:00:15;9.77;;;8.80;;
5456;SDS011;2751;49.802;9.944;2023-05-23T00:02:43;9.47;;;8.53;;
5456;SDS011;2751;49.802;9.944;2023-05-23T00:05:10;9.00;;;8.13;;
5456;SDS011;2751;49.802;9.944;2023-05-23T00:07:39;9.80;;;8.50;;
5456;SDS011;2751;49.802;9.944;2023-05-23T00:10:06;9.17;;;8.33;;
5456;SDS011;2751;49.802;9.944;2023-05-23T00:12:34;10.97;;;8.13;;
5456;SDS011;2751;49.802;9.944;2023-05-23T00:15:03;9.27;;;8.37;;
5456;SDS011;2751;49.802;9.944;2023-05-23T00:17:32;11.17;;;8.60;;
5456;SDS011;2751;49.802;9.944;2023-05-23T00:20:01;10.20;;;9.20;;
5456;SDS011;2751;49.802;9.944;2023-05-23T00:22:28;9.47;;;8.57;;
5456;SDS011;2751;49.802;9.944;2023-05-23T00:24:55;8.97;;;8.17;;
5456;SDS011;2751;49.802;9.944;2023-05-23T00:27:26;9.90;;;8.70;;
5456;SDS011;2751;49.802;9.944;2023-05-23T00:29:54;10.60;;;7.90;;
5456;SDS011;2751;49.802;9.944;2023-05-23T00:32:21;12.43;;;8.73;;
5456;SDS011;2751;49.802;9.944;2023-05-23T00:34:48;10.50;;;9.40;;
5456;SDS011;2751;49.802;9.944;2023-05-23T00:37:18;8.60;;;7.60;;
5456;SDS011;2751;49.802;9.944;2023-05-23T00:39:46;9.60;;;8.67;;
5456;SDS011;2751;49.802;9.944;2023-05-23T00:42:13;9.70;;;8.47;;
5456;SDS011;2751;49.802;9.944;2023-05-23T00:44:40;9.90;;;9.00;;
5456;SDS011;2751;49.802;9.944;2023-05-23T00:47:08;10.93;;;8.90;;
5456;SDS011;2751;49.802;9.944;2023-05-23T00:49:37;9.10;;;8.30;;
5456;SDS011;2751;49.802;9.944;2023-05-23T00:52:05;9.80;;;8.90;;
5456;SDS011;2751;49.802;9.944;2023-05-23T00:54:32;12.37;;;9.10;;
5456;SDS011;2751;49.802;9.944;2023-05-23T00:56:59;11.67;;;9.53;;
5456;SDS011;2751;49.802;9.944;2023-05-23T00:59:26;10.80;;;9.77;;
5456;SDS011;2751;49.802;9.944;2023-05-23T01:01:54;10.40;;;9.40;;
5456;SDS011;2751;49.802;9.944;2023-05-23T01:04:25;12.50;;;10.20;;
5456;SDS011;2751;49.802;9.944;2023-05-23T01:06:53;13.57;;;9.90;;
5456;SDS011;2751;49.802;9.944;2023-05-23T01:09:20;9.73;;;8.80;;
5456;SDS011;2751;49.802;9.944;2023-05-23T01:11:52;11.27;;;9.83;;
5456;SDS011;2751;49.802;9.944;2023-05-23T01:14:28;11.13;;;10.03;;
5456;SDS011;2751;49.802;9.944;2023-05-23T01:16:59;10.67;;;8.63;;
5456;SDS011;2751;49.802;9.944;2023-05-23T01:22:22;12.17;;;10.87;;
5456;SDS011;2751;49.802;9.944;2023-05-23T01:24:59;15.07;;;10.80;;
5456;SDS011;2751;49.802;9.944;2023-05-23T01:27:42;13.73;;;11.10;;
5456;SDS011;2751;49.802;9.944;2023-05-23T01:30:14;19.23;;;10.93;;
5456;SDS011;2751;49.802;9.944;2023-05-23T01:32:46;12.13;;;10.80;;
5456;SDS011;2751;49.802;9.944;2023-05-23T01:35:15;10.90;;;9.80;;
5456;SDS011;2751;49.802;9.944;2023-05-23T01:37:47;12.07;;;10.87;;
5456;SDS011;2751;49.802;9.944;2023-05-23T01:40:13;11.90;;;10.60;;
5456;SDS011;2751;49.802;9.944;2023-05-23T01:42:42;13.20;;;10.73;;
5456;SDS011;2751;49.802;9.944;2023-05-23T01:45:09;14.00;;;11.70;;
5456;SDS011;2751;49.802;9.944;2023-05-23T01:47:37;12.13;;;10.40;;
5456;SDS011;2751;49.802;9.944;2023-05-23T01:50:06;11.57;;;10.43;;
5456;SDS011;2751;49.802;9.944;2023-05-23T01:52:34;10.43;;;9.53;;
5456;SDS011;2751;49.802;9.944;2023-05-23T01:55:01;11.93;;;10.73;;
5456;SDS011;2751;49.802;9.944;2023-05-23T01:57:34;11.27;;;10.07;;
5456;SDS011;2751;49.802;9.944;2023-05-23T02:00:03;12.53;;;9.93;;
5456;SDS011;2751;49.802;9.944;2023-05-23T02:02:31;13.60;;;10.80;;
5456;SDS011;2751;49.802;9.944;2023-05-23T02:04:58;11.80;;;10.70;;
5456;SDS011;2751;49.802;9.944;2023-05-23T02:07:25;15.50;;;10.67;;
5456;SDS011;2751;49.802;9.944;2023-05-23T02:09:51;13.37;;;10.60;;
5456;SDS011;2751;49.802;9.944;2023-05-23T02:12:18;12.27;;;11.07;;
5456;SDS011;2751;49.802;9.944;2023-05-23T02:14:45;12.23;;;11.03;;
5456;SDS011;2751;49.802;9.944;2023-05-23T02:17:13;12.33;;;11.03;;
5456;SDS011;2751;49.802;9.944;2023-05-23T02:19:40;12.10;;;11.00;;
5456;SDS011;2751;49.802;9.944;2023-05-23T02:22:07;14.03;;;10.40;;
5456;SDS011;2751;49.802;9.944;2023-05-23T02:24:34;12.43;;;11.17;;
5456;SDS011;2751;49.802;9.944;2023-05-23T02:27:01;11.50;;;10.40;;
5456;SDS011;2751;49.802;9.944;2023-05-23T02:29:28;10.73;;;9.70;;
5456;SDS011;2751;49.802;9.944;2023-05-23T02:31:55;10.77;;;9.03;;
5456;SDS011;2751;49.802;9.944;2023-05-23T02:34:23;11.03;;;9.93;;
5456;SDS011;2751;49.802;9.944;2023-05-23T02:36:50;12.43;;;9.83;;
5456;SDS011;2751;49.802;9.944;2023-05-23T02:39:17;11.43;;;10.33;;
5456;SDS011;2751;49.802;9.944;2023-05-23T02:41:43;10.40;;;9.30;;
5456;SDS011;2751;49.802;9.944;2023-05-23T02:44:10;9.83;;;9.03;;
5456;SDS011;2751;49.802;9.944;2023-05-23T02:46:37;12.43;;;9.40;;
5456;SDS011;2751;49.802;9.944;2023-05-23T02:49:04;10.80;;;9.80;;
5456;SDS011;2751;49.802;9.944;2023-05-23T02:51:32;13.83;;;10.40;;
5456;SDS011;2751;49.802;9.944;2023-05-23T02:54:00;11.57;;;10.37;;
5456;SDS011;2751;49.802;9.944;2023-05-23T02:56:26;11.00;;;9.90;;
5456;SDS011;2751;49.802;9.944;2023-05-23T02:58:53;12.73;;;10.33;;
5456;SDS011;2751;49.802;9.944;2023-05-23T03:01:20;10.50;;;9.50;;
5456;SDS011;2751;49.802;9.944;2023-05-23T03:03:47;11.13;;;9.93;;
5456;SDS011;2751;49.802;9.944;2023-05-23T03:06:14;12.60;;;11.37;;
5456;SDS011;2751;49.802;9.944;2023-05-23T03:08:42;10.73;;;9.60;;
5456;SDS011;2751;49.802;9.944;2023-05-23T03:11:09;13.73;;;10.30;;
5456;SDS011;2751;49.802;9.944;2023-05-23T03:13:36;11.80;;;10.60;;
5456;SDS011;2751;49.802;9.944;2023-05-23T03:16:03;12.00;;;10.90;;
5456;SDS011;2751;49.802;9.944;2023-05-23T03:18:29;9.97;;;9.00;;
5456;SDS011;2751;49.802;9.944;2023-05-23T03:20:56;11.37;;;10.27;;
5456;SDS011;2751;49.802;9.944;2023-05-23T03:23:23;12.60;;;9.63;;
5456;SDS011;2751;49.802;9.944;2023-05-23T03:25:51;13.73;;;10.80;;
5456;SDS011;2751;49.802;9.944;2023-05-23T03:28:18;11.37;;;10.27;;
5456;SDS011;2751;49.802;9.944;2023-05-23T03:30:45;13.27;;;10.30;;
5456;SDS011;2751;49.802;9.944;2023-05-23T03:33:12;10.37;;;9.47;;
5456;SDS011;2751;49.802;9.944;2023-05-23T03:35:38;10.50;;;9.60;;
5456;SDS011;2751;49.802;9.944;2023-05-23T03:38:05;11.13;;;10.13;;
5456;SDS011;2751;49.802;9.944;2023-05-23T03:40:32;12.30;;;11.03;;
5456;SDS011;2751;49.802;9.944;2023-05-23T03:43:03;10.50;;;9.47;;
5456;SDS011;2751;49.802;9.944;2023-05-23T03:45:31;13.07;;;10.20;;
5456;SDS011;2751;49.802;9.944;2023-05-23T03:47:58;11.80;;;10.57;;
5456;SDS011;2751;49.802;9.944;2023-05-23T03:50:25;12.17;;;10.97;;
5456;SDS011;2751;49.802;9.944;2023-05-23T03:52:52;12.37;;;11.00;;
5456;SDS011;2751;49.802;9.944;2023-05-23T03:55:19;12.00;;;10.80;;
5456;SDS011;2751;49.802;9.944;2023-05-23T03:57:48;11.17;;;10.07;;
5456;SDS011;2751;49.802;9.944;2023-05-23T04:00:16;11.30;;;10.20;;
5456;SDS011;2751;49.802;9.944;2023-05-23T04:02:44;12.10;;;10.90;;
5456;SDS011;2751;49.802;9.944;2023-05-23T04:05:11;11.43;;;10.33;;
5456;SDS011;2751;49.802;9.944;2023-05-23T04:07:38;15.20;;;11.60;;
5456;SDS011;2751;49.802;9.944;2023-05-23T04:10:06;12.37;;;11.17;;
5456;SDS011;2751;49.802;9.944;2023-05-23T04:12:34;12.90;;;11.60;;
5456;SDS011;2751;49.802;9.944;2023-05-23T04:15:01;11.97;;;10.60;;
5456;SDS011;2751;49.802;9.944;2023-05-23T04:17:29;11.30;;;10.30;;
5456;SDS011;2751;49.802;9.944;2023-05-23T04:19:56;12.50;;;10.60;;
5456;SDS011;2751;49.802;9.944;2023-05-23T04:22:23;14.23;;;11.20;;
5456;SDS011;2751;49.802;9.944;2023-05-23T04:24:50;15.00;;;12.43;;
5456;SDS011;2751;49.802;9.944;2023-05-23T04:27:17;12.63;;;11.30;;
5456;SDS011;2751;49.802;9.944;2023-05-23T04:29:46;15.60;;;11.80;;
5456;SDS011;2751;49.802;9.944;2023-05-23T04:32:13;14.33;;;12.00;;
5456;SDS011;2751;49.802;9.944;2023-05-23T04:34:42;13.17;;;11.70;;
5456;SDS011;2751;49.802;9.944;2023-05-23T04:37:09;12.00;;;10.60;;
5456;SDS011;2751;49.802;9.944;2023-05-23T04:39:36;12.20;;;10.90;;
5456;SDS011;2751;49.802;9.944;2023-05-23T04:42:03;11.90;;;10.70;;
5456;SDS011;2751;49.802;9.944;2023-05-23T04:44:31;17.47;;;12.10;;
5456;SDS011;2751;49.802;9.944;2023-05-23T04:46:58;15.30;;;11.20;;
5456;SDS011;2751;49.802;9.944;2023-05-23T04:49:26;14.50;;;11.43;;
5456;SDS011;2751;49.802;9.944;2023-05-23T04:51:54;13.10;;;11.70;;
5456;SDS011;2751;49.802;9.944;2023-05-23T04:54:21;14.60;;;12.03;;
5456;SDS011;2751;49.802;9.944;2023-05-23T04:56:48;13.20;;;11.83;;
5456;SDS011;2751;49.802;9.944;2023-05-23T04:59:15;15.87;;;12.20;;
5456;SDS011;2751;49.802;9.944;2023-05-23T05:01:42;14.00;;;11.97;;
5456;SDS011;2751;49.802;9.944;2023-05-23T05:04:09;13.27;;;11.87;;
5456;SDS011;2751;49.802;9.944;2023-05-23T05:06:36;14.80;;;11.90;;
5456;SDS011;2751;49.802;9.944;2023-05-23T05:09:04;14.40;;;12.90;;
5456;SDS011;2751;49.802;9.944;2023-05-23T05:11:31;13.30;;;10.70;;
5456;SDS011;2751;49.802;9.944;2023-05-23T05:13:58;12.13;;;10.23;;
5456;SDS011;2751;49.802;9.944;2023-05-23T05:16:25;14.80;;;11.40;;
5456;SDS011;2751;49.802;9.944;2023-05-23T05:18:52;12.33;;;11.00;;
5456;SDS011;2751;49.802;9.944;2023-05-23T05:21:18;12.33;;;11.13;;
5456;SDS011;2751;49.802;9.944;2023-05-23T05:23:45;15.33;;;11.83;;
5456;SDS011;2751;49.802;9.944;2023-05-23T05:26:14;12.23;;;11.03;;
5456;SDS011;2751;49.802;9.944;2023-05-23T05:28:41;13.13;;;11.83;;
5456;SDS011;2751;49.802;9.944;2023-05-23T05:31:09;14.90;;;13.03;;
5456;SDS011;2751;49.802;9.944;2023-05-23T05:33:39;20.27;;;13.37;;
5456;SDS011;2751;49.802;9.944;2023-05-23T05:36:06;14.00;;;12.60;;
5456;SDS011;2751;49.802;9.944;2023-05-23T05:38:33;15.37;;;13.90;;
5456;SDS011;2751;49.802;9.944;2023-05-23T05:41:00;14.87;;;13.43;;
5456;SDS011;2751;49.802;9.944;2023-05-23T05:43:28;19.07;;;13.77;;
5456;SDS011;2751;49.802;9.944;2023-05-23T05:45:55;19.50;;;13.63;;
5456;SDS011;2751;49.802;9.944;2023-05-23T05:48:21;16.00;;;13.77;;
5456;SDS011;2751;49.802;9.944;2023-05-23T05:50:48;14.73;;;13.17;;
5456;SDS011;2751;49.802;9.944;2023-05-23T05:53:15;14.57;;;13.17;;
5456;SDS011;2751;49.802;9.944;2023-05-23T05:55:42;16.77;;;12.70;;
5456;SDS011;2751;49.802;9.944;2023-05-23T05:58:09;13.53;;;9.70;;
5456;SDS011;2751;49.802;9.944;2023-05-23T06:00:37;13.57;;;11.43;;
5456;SDS011;2751;49.802;9.944;2023-05-23T06:03:07;9.27;;;8.33;;
5456;SDS011;2751;49.802;9.944;2023-05-23T06:05:34;15.33;;;11.20;;
5456;SDS011;2751;49.802;9.944;2023-05-23T06:08:03;12.83;;;9.87;;
5456;SDS011;2751;49.802;9.944;2023-05-23T06:10:30;11.90;;;10.70;;
5456;SDS011;2751;49.802;9.944;2023-05-23T06:12:57;8.33;;;7.47;;
5456;SDS011;2751;49.802;9.944;2023-05-23T06:15:24;10.27;;;8.87;;
5456;SDS011;2751;49.802;9.944;2023-05-23T06:17:52;9.97;;;8.87;;
5456;SDS011;2751;49.802;9.944;2023-05-23T06:20:19;12.63;;;10.30;;
5456;SDS011;2751;49.802;9.944;2023-05-23T06:22:46;11.53;;;9.60;;
5456;SDS011;2751;49.802;9.944;2023-05-23T06:25:13;12.37;;;9.93;;
5456;SDS011;2751;49.802;9.944;2023-05-23T06:27:40;10.10;;;9.20;;
5456;SDS011;2751;49.802;9.944;2023-05-23T06:30:09;12.30;;;9.00;;
5456;SDS011;2751;49.802;9.944;2023-05-23T06:32:36;15.30;;;8.70;;
5456;SDS011;2751;49.802;9.944;2023-05-23T06:35:05;9.43;;;8.50;;
5456;SDS011;2751;49.802;9.944;2023-05-23T06:37:32;10.07;;;9.17;;
5456;SDS011;2751;49.802;9.944;2023-05-23T06:40:00;8.10;;;7.23;;
5456;SDS011;2751;49.802;9.944;2023-05-23T06:42:27;8.30;;;7.60;;
5456;SDS011;2751;49.802;9.944;2023-05-23T06:44:54;10.30;;;9.40;;
5456;SDS011;2751;49.802;9.944;2023-05-23T06:47:21;11.10;;;8.60;;
5456;SDS011;2751;49.802;9.944;2023-05-23T06:49:48;9.60;;;8.23;;
5456;SDS011;2751;49.802;9.944;2023-05-23T06:52:16;9.03;;;8.17;;
5456;SDS011;2751;49.802;9.944;2023-05-23T06:54:43;8.00;;;7.30;;
5456;SDS011;2751;49.802;9.944;2023-05-23T06:57:10;11.63;;;8.20;;
5456;SDS011;2751;49.802;9.944;2023-05-23T06:59:38;6.73;;;4.80;;
5456;SDS011;2751;49.802;9.944;2023-05-23T07:02:05;8.30;;;7.53;;
5456;SDS011;2751;49.802;9.944;2023-05-23T07:04:32;9.17;;;7.50;;
5456;SDS011;2751;49.802;9.944;2023-05-23T07:06:58;11.60;;;7.97;;
5456;SDS011;2751;49.802;9.944;2023-05-23T07:09:27;8.40;;;7.60;;
5456;SDS011;2751;49.802;9.944;2023-05-23T07:11:54;9.60;;;7.90;;
5456;SDS011;2751;49.802;9.944;2023-05-23T07:14:21;7.20;;;6.50;;
5456;SDS011;2751;49.802;9.944;2023-05-23T07:16:48;7.77;;;7.07;;
5456;SDS011;2751;49.802;9.944;2023-05-23T07:19:15;7.17;;;6.30;;
5456;SDS011;2751;49.802;9.944;2023-05-23T07:21:41;7.80;;;7.00;;
5456;SDS011;2751;49.802;9.944;2023-05-23T07:24:08;6.10;;;5.50;;
5456;SDS011;2751;49.802;9.944;2023-05-23T07:26:36;6.20;;;5.70;;
5456;SDS011;2751;49.802;9.944;2023-05-23T07:29:03;7.20;;;5.80;;
5456;SDS011;2751;49.802;9.944;2023-05-23T07:31:31;5.70;;;5.10;;
5456;SDS011;2751;49.802;9.944;2023-05-23T07:33:57;4.40;;;3.63;;
5456;SDS011;2751;49.802;9.944;2023-05-23T07:36:24;5.57;;;4.93;;
5456;SDS011;2751;49.802;9.944;2023-05-23T07:38:51;5.70;;;5.20;;
5456;SDS011;2751;49.802;9.944;2023-05-23T07:41:18;4.07;;;3.67;;
5456;SDS011;2751;49.802;9.944;2023-05-23T07:43:47;4.53;;;3.47;;
5456;SDS011;2751;49.802;9.944;2023-05-23T07:46:14;6.30;;;4.47;;
5456;SDS011;2751;49.802;9.944;2023-05-23T07:48:41;5.20;;;4.80;;
5456;SDS011;2751;49.802;9.944;2023-05-23T07:51:08;4.90;;;4.50;;
5456;SDS011;2751;49.802;9.944;2023-05-23T07:53:35;5.43;;;4.43;;
5456;SDS011;2751;49.802;9.944;2023-05-23T07:56:04;6.70;;;4.93;;
5456;SDS011;2751;49.802;9.944;2023-05-23T07:58:31;4.60;;;4.20;;
5456;SDS011;2751;49.802;9.944;2023-05-23T08:00:59;5.27;;;4.83;;
5456;SDS011;2751;49.802;9.944;2023-05-23T08:03:27;8.50;;;4.90;;
5456;SDS011;2751;49.802;9.944;2023-05-23T08:05:54;4.80;;;4.30;;
5456;SDS011;2751;49.802;9.944;2023-05-23T08:08:21;6.07;;;5.57;;
5456;SDS011;2751;49.802;9.944;2023-05-23T08:10:48;5.20;;;4.80;;
5456;SDS011;2751;49.802;9.944;2023-05-23T08:13:15;4.70;;;4.40;;
5456;SDS011;2751;49.802;9.944;2023-05-23T08:15:42;4.60;;;4.20;;
5456;SDS011;2751;49.802;9.944;2023-05-23T08:18:10;4.20;;;3.90;;
5456;SDS011;2751;49.802;9.944;2023-05-23T08:20:37;4.17;;;3.87;;
5456;SDS011;2751;49.802;9.944;2023-05-23T08:23:04;3.20;;;3.00;;
5456;SDS011;2751;49.802;9.944;2023-05-23T08:25:31;4.30;;;3.57;;
5456;SDS011;2751;49.802;9.944;2023-05-23T08:27:59;3.70;;;3.50;;
5456;SDS011;2751;49.802;9.944;2023-05-23T08:30:27;3.83;;;3.60;;
5456;SDS011;2751;49.802;9.944;2023-05-23T08:32:55;4.00;;;3.70;;
5456;SDS011;2751;49.802;9.944;2023-05-23T08:35:23;5.93;;;4.20;;
5456;SDS011;2751;49.802;9.944;2023-05-23T08:37:50;3.70;;;3.33;;
5456;SDS011;2751;49.802;9.944;2023-05-23T08:40:17;3.73;;;3.30;;
5456;SDS011;2751;49.802;9.944;2023-05-23T08:42:45;3.37;;;3.17;;
5456;SDS011;2751;49.802;9.944;2023-05-23T08:45:12;3.07;;;2.70;;
5456;SDS011;2751;49.802;9.944;2023-05-23T08:47:39;3.47;;;3.17;;
5456;SDS011;2751;49.802;9.944;2023-05-23T08:50:10;3.77;;;2.53;;
5456;SDS011;2751;49.802;9.944;2023-05-23T08:52:42;4.07;;;3.67;;
5456;SDS011;2751;49.802;9.944;2023-05-23T08:55:10;4.20;;;3.80;;
5456;SDS011;2751;49.802;9.944;2023-05-23T08:57:37;3.43;;;3.23;;
5456;SDS011;2751;49.802;9.944;2023-05-23T09:00:08;3.23;;;2.90;;
5456;SDS011;2751;49.802;9.944;2023-05-23T09:02:38;2.77;;;2.63;;
5456;SDS011;2751;49.802;9.944;2023-05-23T09:05:06;2.20;;;2.10;;
5456;SDS011;2751;49.802;9.944;2023-05-23T09:07:34;3.17;;;2.90;;
5456;SDS011;2751;49.802;9.944;2023-05-23T09:10:03;3.47;;;3.20;;
5456;SDS011;2751;49.802;9.944;2023-05-23T09:12:32;3.63;;;3.33;;
5456;SDS011;2751;49.802;9.944;2023-05-23T09:15:00;3.93;;;2.93;;
5456;SDS011;2751;49.802;9.944;2023-05-23T09:17:27;3.80;;;3.50;;
5456;SDS011;2751;49.802;9.944;2023-05-23T09:19:56;3.87;;;3.47;;
5456;SDS011;2751;49.802;9.944;2023-05-23T09:22:23;3.27;;;3.07;;
5456;SDS011;2751;49.802;9.944;2023-05-23T09:24:51;6.50;;;3.73;;
5456;SDS011;2751;49.802;9.944;2023-05-23T09:27:20;3.37;;;3.17;;
5456;SDS011;2751;49.802;9.944;2023-05-23T09:29:47;3.13;;;2.93;;
5456;SDS011;2751;49.802;9.944;2023-05-23T09:32:15;5.23;;;2.80;;
5456;SDS011;2751;49.802;9.944;2023-05-23T09:34:53;2.30;;;2.10;;
5456;SDS011;2751;49.802;9.944;2023-05-23T09:37:23;6.50;;;2.50;;
5456;SDS011;2751;49.802;9.944;2023-05-23T09:39:55;2.40;;;2.30;;
5456;SDS011;2751;49.802;9.944;2023-05-23T09:42:23;2.63;;;2.53;;
5456;SDS011;2751;49.802;9.944;2023-05-23T09:44:51;2.63;;;2.43;;
5456;SDS011;2751;49.802;9.944;2023-05-23T09:47:19;2.67;;;2.47;;
5456;SDS011;2751;49.802;9.944;2023-05-23T09:49:46;3.60;;;3.30;;
5456;SDS011;2751;49.802;9.944;2023-05-23T09:52:12;3.10;;;2.80;;
5456;SDS011;2751;49.802;9.944;2023-05-23T09:54:39;3.30;;;2.33;;
5456;SDS011;2751;49.802;9.944;2023-05-23T09:57:07;2.80;;;2.60;;
5456;SDS011;2751;49.802;9.944;2023-05-23T09:59:38;2.90;;;2.70;;
5456;SDS011;2751;49.802;9.944;2023-05-23T10:02:06;3.73;;;2.10;;
5456;SDS011;2751;49.802;9.944;2023-05-23T10:04:37;2.40;;;2.30;;
5456;SDS011;2751;49.802;9.944;2023-05-23T10:07:07;2.87;;;2.57;;
5456;SDS011;2751;49.802;9.944;2023-05-23T10:09:39;3.23;;;3.00;;
5456;SDS011;2751;49.802;9.944;2023-05-23T10:15:14;2.83;;;1.80;;
5456;SDS011;2751;49.802;9.944;2023-05-23T10:17:56;3.80;;;2.63;;
5456;SDS011;2751;49.802;9.944;2023-05-23T10:20:29;2.70;;;2.50;;
5456;SDS011;2751;49.802;9.944;2023-05-23T10:22:57;3.53;;;2.87;;
5456;SDS011;2751;49.802;9.944;2023-05-23T10:25:25;3.10;;;2.53;;
5456;SDS011;2751;49.802;9.944;2023-05-23T10:27:54;2.27;;;2.17;;
5456;SDS011;2751;49.802;9.944;2023-05-23T10:30:25;2.60;;;2.50;;
5456;SDS011;2751;49.802;9.944;2023-05-23T10:32:52;3.20;;;3.00;;
5456;SDS011;2751;49.802;9.944;2023-05-23T10:35:22;2.00;;;1.90;;
5456;SDS011;2751;49.802;9.944;2023-05-23T10:37:58;3.90;;;2.20;;
5456;SDS011;2751;49.802;9.944;2023-05-23T10:40:30;2.43;;;2.23;;
5456;SDS011;2751;49.802;9.944;2023-05-23T10:43:09;2.40;;;2.30;;
5456;SDS011;2751;49.802;9.944;2023-05-23T10:45:43;2.97;;;2.30;;
5456;SDS011;2751;49.802;9.944;2023-05-23T10:48:20;2.70;;;2.50;;
5456;SDS011;2751;49.802;9.944;2023-05-23T10:51:00;2.80;;;2.60;;
5456;SDS011;2751;49.802;9.944;2023-05-23T10:53:30;3.77;;;3.47;;
5456;SDS011;2751;49.802;9.944;2023-05-23T10:55:58;2.80;;;2.53;;
5456;SDS011;2751;49.802;9.944;2023-05-23T10:58:25;2.23;;;2.03;;
5456;SDS011;2751;49.802;9.944;2023-05-23T11:00:58;2.30;;;2.10;;
5456;SDS011;2751;49.802;9.944;2023-05-23T11:03:36;2.30;;;2.10;;
5456;SDS011;2751;49.802;9.944;2023-05-23T11:06:27;3.40;;;2.60;;
5456;SDS011;2751;49.802;9.944;2023-05-23T11:09:00;2.47;;;2.27;;
5456;SDS011;2751;49.802;9.944;2023-05-23T11:14:30;2.40;;;2.20;;
5456;SDS011;2751;49.802;9.944;2023-05-23T11:17:00;2.17;;;2.07;;
5456;SDS011;2751;49.802;9.944;2023-05-23T11:19:54;2.90;;;2.70;;
5456;SDS011;2751;49.802;9.944;2023-05-23T11:22:26;2.03;;;1.93;;
5456;SDS011;2751;49.802;9.944;2023-05-23T11:24:54;2.70;;;2.17;;
5456;SDS011;2751;49.802;9.944;2023-05-23T11:27:25;3.27;;;2.70;;
5456;SDS011;2751;49.802;9.944;2023-05-23T11:29:56;2.20;;;2.10;;
5456;SDS011;2751;49.802;9.944;2023-05-23T11:32:29;1.97;;;1.80;;
5456;SDS011;2751;49.802;9.944;2023-05-23T11:35:00;2.83;;;2.63;;
5456;SDS011;2751;49.802;9.944;2023-05-23T11:37:27;3.20;;;2.90;;
5456;SDS011;2751;49.802;9.944;2023-05-23T11:39:55;2.77;;;2.57;;
5456;SDS011;2751;49.802;9.944;2023-05-23T11:42:22;4.47;;;3.00;;
5456;SDS011;2751;49.802;9.944;2023-05-23T11:44:49;3.63;;;3.30;;
5456;SDS011;2751;49.802;9.944;2023-05-23T11:47:16;4.80;;;2.10;;
5456;SDS011;2751;49.802;9.944;2023-05-23T11:49:45;2.43;;;1.70;;
5456;SDS011;2751;49.802;9.944;2023-05-23T11:52:12;2.40;;;2.30;;
5456;SDS011;2751;49.802;9.944;2023-05-23T11:54:40;2.40;;;2.20;;
5456;SDS011;2751;49.802;9.944;2023-05-23T11:57:07;2.30;;;2.20;;
5456;SDS011;2751;49.802;9.944;2023-05-23T11:59:34;2.50;;;2.30;;
5456;SDS011;2751;49.802;9.944;2023-05-23T12:02:01;3.27;;;2.40;;
5456;SDS011;2751;49.802;9.944;2023-05-23T12:04:28;3.10;;;2.30;;
5456;SDS011;2751;49.802;9.944;2023-05-23T12:06:57;3.40;;;2.40;;
5456;SDS011;2751;49.802;9.944;2023-05-23T12:09:24;3.00;;;2.70;;
5456;SDS011;2751;49.802;9.944;2023-05-23T12:11:50;2.50;;;2.40;;
5456;SDS011;2751;49.802;9.944;2023-05-23T12:14:17;2.13;;;2.03;;
5456;SDS011;2751;49.802;9.944;2023-05-23T12:16:44;2.50;;;2.20;;
5456;SDS011;2751;49.802;9.944;2023-05-23T12:19:12;7.60;;;2.27;;
5456;SDS011;2751;49.802;9.944;2023-05-23T12:21:42;2.40;;;2.30;;
5456;SDS011;2751;49.802;9.944;2023-05-23T12:24:12;2.17;;;2.07;;
5456;SDS011;2751;49.802;9.944;2023-05-23T12:26:47;2.00;;;1.90;;
5456;SDS011;2751;49.802;9.944;2023-05-23T12:29:17;2.00;;;1.90;;
5456;SDS011;2751;49.802;9.944;2023-05-23T12:31:47;2.77;;;2.60;;
5456;SDS011;2751;49.802;9.944;2023-05-23T12:34:15;2.50;;;2.40;;
5456;SDS011;2751;49.802;9.944;2023-05-23T12:36:42;2.57;;;2.37;;
5456;SDS011;2751;49.802;9.944;2023-05-23T12:39:10;2.93;;;2.67;;
5456;SDS011;2751;49.802;9.944;2023-05-23T12:41:38;2.03;;;1.93;;
5456;SDS011;2751;49.802;9.944;2023-05-23T12:44:08;2.63;;;2.43;;
5456;SDS011;2751;49.802;9.944;2023-05-23T12:46:35;5.23;;;4.70;;
5456;SDS011;2751;49.802;9.944;2023-05-23T12:49:02;3.60;;;2.60;;
5456;SDS011;2751;49.802;9.944;2023-05-23T12:51:29;2.53;;;2.33;;
5456;SDS011;2751;49.802;9.944;2023-05-23T12:53:56;2.40;;;2.30;;
5456;SDS011;2751;49.802;9.944;2023-05-23T12:56:24;6.10;;;5.60;;
5456;SDS011;2751;49.802;9.944;2023-05-23T12:58:52;2.37;;;2.27;;
5456;SDS011;2751;49.802;9.944;2023-05-23T13:01:19;2.50;;;2.30;;
5456;SDS011;2751;49.802;9.944;2023-05-23T13:03:46;2.23;;;2.13;;
5456;SDS011;2751;49.802;9.944;2023-05-23T13:06:13;2.50;;;2.40;;
5456;SDS011;2751;49.802;9.944;2023-05-23T13:08:40;2.70;;;2.60;;
5456;SDS011;2751;49.802;9.944;2023-05-23T13:11:08;2.70;;;2.13;;
5456;SDS011;2751;49.802;9.944;2023-05-23T13:13:35;2.67;;;2.37;;
5456;SDS011;2751;49.802;9.944;2023-05-23T13:16:03;2.10;;;2.00;;
5456;SDS011;2751;49.802;9.944;2023-05-23T13:18:30;4.20;;;2.43;;
5456;SDS011;2751;49.802;9.944;2023-05-23T13:20:57;2.80;;;2.70;;
5456;SDS011;2751;49.802;9.944;2023-05-23T13:23:24;2.37;;;2.27;;
5456;SDS011;2751;49.802;9.944;2023-05-23T13:25:51;3.43;;;2.43;;
5456;SDS011;2751;49.802;9.944;2023-05-23T13:28:17;2.50;;;2.30;;
5456;SDS011;2751;49.802;9.944;2023-05-23T13:30:44;7.03;;;1.97;;
5456;SDS011;2751;49.802;9.944;2023-05-23T13:33:13;2.47;;;2.17;;
5456;SDS011;2751;49.802;9.944;2023-05-23T13:35:39;3.13;;;2.20;;
5456;SDS011;2751;49.802;9.944;2023-05-23T13:38:06;3.70;;;1.80;;
5456;SDS011;2751;49.802;9.944;2023-05-23T13:40:33;2.20;;;2.10;;
5456;SDS011;2751;49.802;9.944;2023-05-23T13:43:00;2.47;;;1.73;;
5456;SDS011;2751;49.802;9.944;2023-05-23T13:45:27;2.10;;;2.00;;
5456;SDS011;2751;49.802;9.944;2023-05-23T13:47:55;2.57;;;2.00;;
5456;SDS011;2751;49.802;9.944;2023-05-23T13:50:23;1.90;;;1.80;;
5456;SDS011;2751;49.802;9.944;2023-05-23T13:52:50;1.60;;;1.50;;
5456;SDS011;2751;49.802;9.944;2023-05-23T13:55:17;1.77;;;1.67;;
5456;SDS011;2751;49.802;9.944;2023-05-23T13:57:44;1.77;;;1.67;;
5456;SDS011;2751;49.802;9.944;2023-05-23T14:00:11;1.83;;;1.73;;
5456;SDS011;2751;49.802;9.944;2023-05-23T14:02:40;2.53;;;2.33;;
5456;SDS011;2751;49.802;9.944;2023-05-23T14:05:07;1.80;;;1.70;;
5456;SDS011;2751;49.802;9.944;2023-05-23T14:07:36;1.70;;;1.60;;
5456;SDS011;2751;49.802;9.944;2023-05-23T14:10:03;1.70;;;1.60;;
5456;SDS011;2751;49.802;9.944;2023-05-23T14:12:31;1.60;;;1.50;;
5456;SDS011;2751;49.802;9.944;2023-05-23T14:14:58;1.63;;;1.53;;
5456;SDS011;2751;49.802;9.944;2023-05-23T14:17:25;2.37;;;1.53;;
5456;SDS011;2751;49.802;9.944;2023-05-23T14:19:51;1.93;;;1.30;;
5456;SDS011;2751;49.802;9.944;2023-05-23T14:22:18;1.37;;;1.37;;
5456;SDS011;2751;49.802;9.944;2023-05-23T14:24:46;1.80;;;1.70;;
5456;SDS011;2751;49.802;9.944;2023-05-23T14:27:13;1.70;;;1.60;;
5456;SDS011;2751;49.802;9.944;2023-05-23T14:29:40;2.40;;;1.50;;
5456;SDS011;2751;49.802;9.944;2023-05-23T14:32:10;1.30;;;1.30;;
5456;SDS011;2751;49.802;9.944;2023-05-23T14:34:37;1.73;;;1.40;;
5456;SDS011;2751;49.802;9.944;2023-05-23T14:37:04;2.20;;;1.70;;
5456;SDS011;2751;49.802;9.944;2023-05-23T14:39:30;3.70;;;1.50;;
5456;SDS011;2751;49.802;9.944;2023-05-23T14:41:59;1.60;;;1.50;;
5456;SDS011;2751;49.802;9.944;2023-05-23T14:44:26;4.80;;;1.70;;
5456;SDS011;2751;49.802;9.944;2023-05-23T14:46:53;4.67;;;1.60;;
5456;SDS011;2751;49.802;9.944;2023-05-23T14:49:20;2.10;;;2.00;;
5456;SDS011;2751;49.802;9.944;2023-05-23T14:51:47;2.10;;;2.00;;
5456;SDS011;2751;49.802;9.944;2023-05-23T14:54:13;4.03;;;1.77;;
5456;SDS011;2751;49.802;9.944;2023-05-23T14:56:41;11.10;;;9.40;;
5456;SDS011;2751;49.802;9.944;2023-05-23T14:59:09;2.50;;;2.30;;
5456;SDS011;2751;49.802;9.944;2023-05-23T15:01:36;1.97;;;1.87;;
5456;SDS011;2751;49.802;9.944;2023-05-23T15:04:03;1.90;;;1.80;;
5456;SDS011;2751;49.802;9.944;2023-05-23T15:06:32;5.60;;;2.43;;
5456;SDS011;2751;49.802;9.944;2023-05-23T15:08:59;2.17;;;2.00;;
5456;SDS011;2751;49.802;9.944;2023-05-23T15:11:27;9.13;;;2.10;;
5456;SDS011;2751;49.802;9.944;2023-05-23T15:13:54;1.90;;;1.80;;
5456;SDS011;2751;49.802;9.944;2023-05-23T15:16:22;1.80;;;1.70;;
5456;SDS011;2751;49.802;9.944;2023-05-23T15:18:49;2.00;;;1.90;;